KFAR/FAR METAR and TAF weather

Enter ICAO airport designator
Station Type Date Time Source
KFAR METAR 2022/06/29 00:53 UTC NOAA

KFAR 290053Z AUTO 03008KT 10SM CLR 19/07 A3011 RMK AO2 SLP196 T01940072


Station Type Date Time Source
KFAR Decoded METAR 2022/06/29 00:53 UTC NOAA

HECTOR INTERNATIONAL AIRPORT , ND, United States (KFAR) 46-56N 096-49W 277M
Jun 28, 2022 - 08:53 PM EDT / 2022.06.29 0053 UTC
Wind: from the NNE (030 degrees) at 9 MPH (8 KT):0
Visibility: 10 mile(s):0
Sky conditions: clear
Temperature: 66.9 F (19.4 C)
Dew Point: 45.0 F (7.2 C)
Relative Humidity: 45%
Pressure (altimeter): 30.11 in. Hg (1019 hPa)
ob: KFAR 290053Z AUTO 03008KT 10SM CLR 19/07 A3011 RMK AO2 SLP196 T01940072
cycle: 1

Station Type Date Time Source
KFAR TAF 2022/06/28 18:22 UTC NOAA

TAF KFAR 281720Z 2818/2918 02011KT P6SM BKN080
FM290200 VRB05KT P6SM FEW120
FM291300 15011KT P6SM -SHRA BKN080
FM291600 15015G25KT P6SM BKN100

Example: see airport list